createdAt,value
2022-10-07T00:01:12.539Z,9.83
2022-10-07T00:03:41.890Z,8.70
2022-10-07T00:06:14.665Z,5.93
2022-10-07T00:08:45.392Z,12.83
2022-10-07T00:11:16.448Z,13.83
2022-10-07T00:13:48.141Z,8.47
2022-10-07T00:16:20.132Z,11.07
2022-10-07T00:18:49.007Z,11.37
2022-10-07T00:21:19.164Z,7.47
2022-10-07T00:23:48.905Z,9.30
2022-10-07T00:26:21.673Z,8.40
2022-10-07T00:28:51.578Z,8.23
2022-10-07T00:31:22.389Z,9.83
2022-10-07T00:33:51.813Z,9.57
2022-10-07T00:36:23.660Z,10.80
2022-10-07T00:38:53.227Z,9.00
2022-10-07T00:41:24.829Z,8.60
2022-10-07T00:43:55.324Z,7.83
2022-10-07T00:46:31.565Z,11.53
2022-10-07T00:49:03.379Z,10.03
2022-10-07T00:51:33.322Z,8.07
2022-10-07T00:54:03.487Z,11.03
2022-10-07T00:56:32.381Z,10.03
2022-10-07T00:59:02.100Z,11.70
2022-10-07T01:01:31.236Z,9.70
2022-10-07T01:03:59.588Z,8.57
2022-10-07T01:06:27.767Z,9.37
2022-10-07T01:08:57.592Z,11.67
2022-10-07T01:11:42.405Z,9.27
2022-10-07T01:14:18.288Z,11.90
2022-10-07T01:16:55.608Z,10.23
2022-10-07T01:19:47.083Z,7.10
2022-10-07T01:22:29.195Z,9.80
2022-10-07T01:25:16.277Z,9.33
2022-10-07T01:27:51.983Z,11.43
2022-10-07T01:30:20.541Z,8.00
2022-10-07T01:32:54.980Z,10.77
2022-10-07T01:35:27.328Z,8.00
2022-10-07T01:38:00.201Z,7.77
2022-10-07T01:40:34.590Z,9.50
2022-10-07T01:43:04.352Z,8.40
2022-10-07T01:45:35.312Z,11.57
2022-10-07T01:48:04.130Z,10.77
2022-10-07T01:50:33.575Z,9.97
2022-10-07T01:53:17.953Z,8.57
2022-10-07T01:56:03.228Z,8.93
2022-10-07T01:58:49.757Z,9.43
2022-10-07T02:01:23.722Z,13.20
2022-10-07T02:04:12.794Z,12.17
2022-10-07T02:06:50.118Z,6.63
2022-10-07T02:09:29.732Z,13.30
2022-10-07T02:12:05.920Z,14.37
2022-10-07T02:14:41.517Z,11.73
2022-10-07T02:17:16.602Z,9.40
2022-10-07T02:19:48.674Z,11.30
2022-10-07T02:22:19.122Z,12.97
2022-10-07T02:24:49.265Z,10.60
2022-10-07T02:27:23.770Z,8.40
2022-10-07T02:29:57.372Z,11.33
2022-10-07T02:32:28.757Z,14.57
2022-10-07T02:35:03.230Z,8.73
2022-10-07T02:37:37.839Z,11.43
2022-10-07T02:40:12.226Z,15.07
2022-10-07T02:42:50.334Z,12.93
2022-10-07T02:45:27.103Z,9.17
2022-10-07T02:48:00.131Z,10.17
2022-10-07T02:50:38.338Z,11.50
2022-10-07T02:53:07.323Z,15.00
2022-10-07T02:55:36.226Z,13.77
2022-10-07T02:58:08.347Z,12.80
2022-10-07T03:00:40.918Z,9.97
2022-10-07T03:03:09.205Z,8.73
2022-10-07T03:05:38.085Z,12.90
2022-10-07T03:08:10.177Z,10.97
2022-10-07T03:10:39.249Z,10.57
2022-10-07T03:13:07.405Z,11.73
2022-10-07T03:15:42.042Z,9.83
2022-10-07T03:18:26.294Z,12.20
2022-10-07T03:20:56.053Z,13.97
2022-10-07T03:23:24.620Z,12.40
2022-10-07T03:25:53.513Z,15.03
2022-10-07T03:28:22.772Z,14.50
2022-10-07T03:30:53.299Z,15.97
2022-10-07T03:33:25.006Z,13.13
2022-10-07T03:35:53.939Z,10.80
2022-10-07T03:38:22.666Z,14.83
2022-10-07T03:40:50.875Z,10.87
2022-10-07T03:43:19.192Z,12.37
2022-10-07T03:45:52.605Z,11.47
2022-10-07T03:48:21.009Z,12.93
2022-10-07T03:50:52.337Z,18.07
2022-10-07T03:53:21.528Z,15.87
2022-10-07T03:55:49.682Z,14.13
2022-10-07T03:58:17.821Z,12.33
2022-10-07T04:00:45.941Z,12.20
2022-10-07T04:03:16.307Z,16.30
2022-10-07T04:05:45.257Z,14.30
2022-10-07T04:08:17.317Z,15.87
2022-10-07T04:10:45.578Z,11.37
2022-10-07T04:13:13.696Z,15.13
2022-10-07T04:15:41.796Z,19.43
2022-10-07T04:18:11.990Z,15.13
2022-10-07T04:20:41.776Z,11.57
2022-10-07T04:23:10.203Z,14.27
2022-10-07T04:25:38.535Z,10.40
2022-10-07T04:28:09.041Z,16.10
2022-10-07T04:30:43.693Z,15.50
2022-10-07T04:33:13.434Z,14.43
2022-10-07T04:35:44.185Z,17.37
2022-10-07T04:38:13.468Z,15.73
2022-10-07T04:40:43.053Z,13.63
2022-10-07T04:43:20.310Z,13.33
2022-10-07T04:45:49.735Z,15.63
2022-10-07T04:48:19.183Z,17.70
2022-10-07T04:50:51.867Z,13.73
2022-10-07T04:53:20.929Z,16.93
2022-10-07T04:55:51.893Z,15.53
2022-10-07T04:58:21.315Z,18.33
2022-10-07T05:00:51.696Z,18.67
2022-10-07T05:03:22.359Z,11.80
2022-10-07T05:05:54.809Z,15.90
2022-10-07T05:08:25.424Z,18.57
2022-10-07T05:10:56.568Z,14.00
2022-10-07T05:13:26.204Z,14.23
2022-10-07T05:15:56.334Z,15.80
2022-10-07T05:18:26.410Z,13.83
2022-10-07T05:20:56.686Z,21.20
2022-10-07T05:23:28.972Z,16.63
2022-10-07T05:26:04.488Z,13.87
2022-10-07T05:28:32.929Z,15.30
2022-10-07T05:31:06.819Z,17.63
2022-10-07T05:33:35.518Z,13.97
2022-10-07T05:36:06.401Z,18.37
2022-10-07T05:38:35.069Z,19.67
2022-10-07T05:41:05.365Z,14.17
2022-10-07T05:43:36.807Z,17.47
2022-10-07T05:46:08.671Z,14.00
2022-10-07T05:48:39.605Z,12.83
2022-10-07T05:51:09.720Z,23.80
2022-10-07T05:53:41.258Z,15.93
2022-10-07T05:56:12.636Z,15.93
2022-10-07T05:58:40.886Z,18.37
2022-10-07T06:01:15.118Z,17.23
2022-10-07T06:03:43.945Z,21.30
2022-10-07T06:06:13.480Z,15.27
2022-10-07T06:08:42.233Z,18.13
2022-10-07T06:11:31.917Z,15.30
2022-10-07T06:14:00.234Z,16.70
2022-10-07T06:16:28.770Z,18.73
2022-10-07T06:18:57.918Z,16.80
2022-10-07T06:21:28.691Z,14.30
2022-10-07T06:23:58.876Z,19.87
2022-10-07T06:26:26.982Z,23.83
2022-10-07T06:28:55.122Z,19.17
2022-10-07T06:31:25.561Z,17.43
2022-10-07T06:33:54.469Z,18.03
2022-10-07T06:36:23.429Z,17.53
2022-10-07T06:38:54.312Z,16.00
2022-10-07T06:41:23.875Z,17.87
2022-10-07T06:43:57.188Z,20.90
2022-10-07T06:46:25.367Z,22.17
2022-10-07T06:48:53.722Z,14.77
2022-10-07T06:51:23.272Z,18.90
2022-10-07T06:53:58.657Z,20.10
2022-10-07T06:56:27.018Z,24.10
2022-10-07T06:58:55.095Z,16.17
2022-10-07T07:01:23.432Z,17.50
2022-10-07T07:03:51.594Z,18.63
2022-10-07T07:06:19.691Z,18.37
2022-10-07T07:08:50.067Z,20.70
2022-10-07T07:11:40.426Z,19.93
2022-10-07T07:14:09.725Z,18.53
2022-10-07T07:16:38.019Z,20.50
2022-10-07T07:19:08.722Z,16.90
2022-10-07T07:21:40.784Z,19.50
2022-10-07T07:24:09.753Z,14.47
2022-10-07T07:26:40.442Z,15.43
2022-10-07T07:29:09.288Z,17.77
2022-10-07T07:31:38.242Z,13.47
2022-10-07T07:34:12.375Z,14.97
2022-10-07T07:36:47.766Z,17.80
2022-10-07T07:39:18.286Z,17.33
2022-10-07T07:41:50.781Z,15.67
2022-10-07T07:44:20.596Z,16.80
2022-10-07T07:46:51.355Z,16.67
2022-10-07T07:49:20.922Z,18.37
2022-10-07T07:51:49.359Z,14.10
2022-10-07T07:54:18.954Z,17.03
2022-10-07T07:56:48.505Z,14.00
2022-10-07T07:59:16.985Z,18.67
2022-10-07T08:01:45.558Z,17.70
2022-10-07T08:04:15.216Z,12.63
2022-10-07T08:06:43.613Z,11.87
2022-10-07T08:09:12.934Z,11.17
2022-10-07T08:11:45.486Z,15.20
2022-10-07T08:14:16.199Z,12.97
2022-10-07T08:16:45.097Z,18.03
2022-10-07T08:19:13.630Z,20.43
2022-10-07T08:21:42.200Z,13.43
2022-10-07T08:24:14.048Z,14.80
2022-10-07T08:26:42.634Z,17.03
2022-10-07T08:29:11.128Z,11.07
2022-10-07T08:31:42.432Z,14.53
2022-10-07T08:34:12.503Z,13.27
2022-10-07T08:36:43.157Z,13.07
2022-10-07T08:39:11.769Z,16.90
2022-10-07T08:41:54.253Z,12.30
2022-10-07T08:44:29.881Z,10.77
2022-10-07T08:47:07.467Z,8.23
2022-10-07T08:49:45.395Z,11.83
2022-10-07T08:52:39.013Z,8.93
2022-10-07T08:55:19.526Z,13.37
2022-10-07T08:58:14.654Z,10.37
2022-10-07T09:00:50.713Z,11.03
2022-10-07T09:03:35.897Z,9.87
2022-10-07T09:06:13.873Z,10.67
2022-10-07T09:08:48.153Z,12.07
2022-10-07T09:11:25.642Z,12.63
2022-10-07T09:14:00.960Z,11.40
2022-10-07T09:16:35.800Z,11.73
2022-10-07T09:19:06.428Z,8.90
2022-10-07T09:21:42.315Z,13.00
2022-10-07T09:24:21.455Z,14.87
2022-10-07T09:26:49.932Z,12.40
2022-10-07T09:29:21.391Z,12.63
2022-10-07T09:31:49.967Z,13.50
2022-10-07T09:34:25.116Z,15.17
2022-10-07T09:37:19.103Z,10.63
2022-10-07T09:39:50.266Z,12.03
2022-10-07T09:42:30.597Z,11.17
2022-10-07T09:45:02.950Z,11.80
2022-10-07T09:47:37.755Z,10.57
2022-10-07T09:50:37.004Z,9.67
2022-10-07T09:53:06.867Z,11.00
2022-10-07T09:55:42.299Z,7.40
2022-10-07T09:58:21.466Z,12.60
2022-10-07T10:00:52.518Z,12.13
2022-10-07T10:03:21.769Z,10.10
2022-10-07T10:05:58.534Z,7.83
2022-10-07T10:08:29.889Z,9.90
2022-10-07T10:10:59.825Z,12.73
2022-10-07T10:13:32.875Z,12.10
2022-10-07T10:16:02.250Z,14.70
2022-10-07T10:18:40.606Z,10.43
2022-10-07T10:21:27.419Z,8.80
2022-10-07T10:23:58.241Z,11.03
2022-10-07T10:26:55.911Z,13.70
2022-10-07T10:29:54.768Z,11.67
2022-10-07T10:32:59.620Z,10.03
2022-10-07T10:35:31.046Z,11.87
2022-10-07T10:38:19.204Z,10.20
2022-10-07T10:40:56.983Z,8.93
2022-10-07T10:43:37.326Z,11.53
2022-10-07T10:46:26.781Z,8.73
2022-10-07T10:49:06.895Z,7.97
2022-10-07T10:51:55.326Z,9.87
2022-10-07T10:54:33.857Z,11.43
2022-10-07T10:57:09.574Z,9.97
2022-10-07T11:00:02.787Z,9.43
2022-10-07T11:03:02.175Z,8.50
2022-10-07T11:05:35.251Z,7.93
2022-10-07T11:08:12.933Z,12.60
2022-10-07T11:10:49.789Z,9.13
2022-10-07T11:13:29.697Z,10.47
2022-10-07T11:16:05.974Z,12.10
2022-10-07T11:18:41.166Z,11.93
2022-10-07T11:21:16.461Z,7.80
2022-10-07T11:23:54.385Z,7.17
2022-10-07T11:26:33.869Z,9.03
2022-10-07T11:29:16.440Z,8.57
2022-10-07T11:31:53.491Z,9.03
2022-10-07T11:34:27.774Z,9.20
2022-10-07T11:37:03.180Z,10.70
2022-10-07T11:39:31.758Z,7.20
2022-10-07T11:42:07.612Z,8.90
2022-10-07T11:44:43.862Z,6.67
2022-10-07T11:47:16.844Z,9.53
2022-10-07T11:49:56.933Z,10.07
2022-10-07T11:52:28.452Z,10.90
2022-10-07T11:55:02.102Z,8.90
2022-10-07T11:57:35.671Z,8.97
2022-10-07T12:00:08.255Z,7.93
2022-10-07T12:02:46.240Z,6.23
2022-10-07T12:06:06.068Z,8.27
2022-10-07T12:08:39.017Z,9.90
2022-10-07T12:11:41.416Z,8.80
2022-10-07T12:14:36.648Z,8.53
2022-10-07T12:17:30.365Z,10.23
2022-10-07T12:20:45.220Z,9.17
2022-10-07T12:23:50.251Z,8.97
2022-10-07T12:26:52.377Z,8.10
2022-10-07T12:29:51.825Z,8.00
2022-10-07T12:32:57.296Z,8.53
2022-10-07T12:35:54.527Z,6.30
2022-10-07T12:38:29.323Z,8.63
2022-10-07T12:41:24.954Z,6.03
2022-10-07T12:44:01.132Z,6.53
2022-10-07T12:46:35.257Z,9.07
2022-10-07T12:49:14.426Z,8.07
2022-10-07T12:51:42.765Z,9.53
2022-10-07T12:54:20.141Z,7.83
2022-10-07T12:56:49.635Z,7.83
2022-10-07T12:59:54.060Z,7.20
2022-10-07T13:03:23.482Z,6.73
2022-10-07T13:06:35.879Z,11.53
2022-10-07T13:09:54.463Z,12.03
2022-10-07T13:12:36.354Z,5.27
2022-10-07T13:15:20.682Z,7.63
2022-10-07T13:17:56.976Z,10.43
2022-10-07T13:20:39.312Z,6.33
2022-10-07T13:23:16.263Z,8.47
2022-10-07T13:25:51.934Z,9.63
2022-10-07T13:28:23.579Z,4.50
2022-10-07T13:30:53.501Z,7.77
2022-10-07T13:33:30.359Z,5.00
2022-10-07T13:36:15.839Z,5.90
2022-10-07T13:38:46.268Z,6.27
2022-10-07T13:41:26.134Z,6.80
2022-10-07T13:43:59.923Z,7.97
2022-10-07T13:46:32.337Z,6.40
2022-10-07T13:49:03.860Z,6.20
2022-10-07T13:51:36.065Z,7.33
2022-10-07T13:54:07.848Z,4.43
2022-10-07T13:56:40.865Z,5.97
2022-10-07T13:59:18.391Z,5.93
2022-10-07T14:01:49.808Z,7.33
2022-10-07T14:04:31.377Z,5.97
2022-10-07T14:07:13.733Z,8.47
2022-10-07T14:09:48.281Z,9.07
2022-10-07T14:12:21.201Z,6.07
2022-10-07T14:14:52.172Z,5.37
2022-10-07T14:17:28.349Z,10.27
2022-10-07T14:20:05.791Z,5.83
2022-10-07T14:22:39.047Z,6.67
2022-10-07T14:25:19.097Z,5.63
2022-10-07T14:28:07.764Z,9.17
2022-10-07T14:30:56.957Z,7.07
2022-10-07T14:34:00.321Z,6.70
2022-10-07T14:36:30.122Z,6.70
2022-10-07T14:39:03.936Z,8.87
2022-10-07T14:41:33.466Z,6.23
2022-10-07T14:44:04.246Z,4.60
2022-10-07T14:46:32.529Z,5.83
2022-10-07T14:49:01.150Z,6.27
2022-10-07T14:51:31.124Z,6.13
2022-10-07T14:54:05.098Z,4.77
2022-10-07T14:56:38.167Z,6.50
2022-10-07T14:59:10.912Z,5.77
2022-10-07T15:01:39.217Z,4.83
2022-10-07T15:04:07.573Z,6.10
2022-10-07T15:06:37.970Z,7.67
2022-10-07T15:09:06.299Z,7.00
2022-10-07T15:11:35.801Z,5.17
2022-10-07T15:14:04.007Z,6.23
2022-10-07T15:16:32.396Z,7.67
2022-10-07T15:19:02.069Z,7.63
2022-10-07T15:21:30.668Z,7.37
2022-10-07T15:24:01.694Z,4.73
2022-10-07T15:26:31.106Z,5.47
2022-10-07T15:29:00.664Z,5.47
2022-10-07T15:31:30.620Z,7.83
2022-10-07T15:33:58.923Z,7.77
2022-10-07T15:36:29.702Z,5.77
2022-10-07T15:39:02.074Z,5.03
2022-10-07T15:41:34.018Z,9.17
2022-10-07T15:44:05.545Z,7.43
2022-10-07T15:46:33.896Z,4.97
2022-10-07T15:49:04.113Z,7.67
2022-10-07T15:51:32.928Z,9.53
2022-10-07T15:54:02.688Z,6.07
2022-10-07T15:56:30.973Z,7.27
2022-10-07T15:59:00.478Z,10.10
2022-10-07T16:01:31.553Z,7.80
2022-10-07T16:04:01.607Z,7.77
2022-10-07T16:06:32.711Z,9.27
2022-10-07T16:09:02.717Z,5.33
2022-10-07T16:11:33.209Z,7.57
2022-10-07T16:14:02.411Z,9.83
2022-10-07T16:16:32.455Z,8.27
2022-10-07T16:19:01.631Z,11.87
2022-10-07T16:21:31.872Z,9.00
2022-10-07T16:24:04.773Z,9.13
2022-10-07T16:26:35.861Z,6.23
2022-10-07T16:29:23.972Z,7.07
2022-10-07T16:31:58.038Z,9.43
2022-10-07T16:34:28.345Z,5.03
2022-10-07T16:36:58.296Z,8.23
2022-10-07T16:39:28.013Z,9.30
2022-10-07T16:41:56.608Z,10.57
2022-10-07T16:44:25.677Z,7.03
2022-10-07T16:46:56.754Z,10.10
2022-10-07T16:49:27.414Z,8.07
2022-10-07T16:51:56.389Z,8.20
2022-10-07T16:54:24.608Z,8.20
2022-10-07T16:56:54.439Z,8.80
2022-10-07T16:59:24.728Z,7.73
2022-10-07T17:01:55.905Z,7.70
2022-10-07T17:04:25.593Z,10.23
2022-10-07T17:06:54.409Z,8.50
2022-10-07T17:09:24.644Z,10.50
2022-10-07T17:11:54.262Z,9.43
2022-10-07T17:14:24.207Z,7.90
2022-10-07T17:16:57.635Z,12.67
2022-10-07T17:19:28.492Z,5.80
2022-10-07T17:21:58.503Z,9.83
2022-10-07T17:24:26.787Z,8.57
2022-10-07T17:26:56.853Z,7.40
2022-10-07T17:29:26.868Z,7.27
2022-10-07T17:31:55.098Z,8.17
2022-10-07T17:34:23.861Z,7.83
2022-10-07T17:36:52.420Z,8.47
2022-10-07T17:39:20.851Z,7.97
2022-10-07T17:41:51.699Z,8.50
2022-10-07T17:44:21.522Z,9.77
2022-10-07T17:46:50.291Z,8.37
2022-10-07T17:49:18.685Z,8.83
2022-10-07T17:51:46.833Z,7.40
2022-10-07T17:54:15.417Z,10.43
2022-10-07T17:56:47.655Z,6.77
2022-10-07T17:59:16.083Z,10.50
2022-10-07T18:01:45.774Z,6.07
2022-10-07T18:04:18.979Z,9.63
2022-10-07T18:06:50.515Z,9.93
2022-10-07T18:09:19.308Z,9.63
2022-10-07T18:12:04.951Z,9.50
2022-10-07T18:14:53.758Z,10.13
2022-10-07T18:17:24.501Z,6.23
2022-10-07T18:19:52.910Z,10.13
2022-10-07T18:22:21.425Z,11.23
2022-10-07T18:24:49.811Z,12.67
2022-10-07T18:27:18.048Z,7.57
2022-10-07T18:29:46.212Z,7.90
2022-10-07T18:32:14.355Z,9.20
2022-10-07T18:34:43.962Z,7.07
2022-10-07T18:37:12.146Z,9.27
2022-10-07T18:39:40.871Z,15.17
2022-10-07T18:42:09.151Z,9.27
2022-10-07T18:44:37.284Z,10.20
2022-10-07T18:47:05.816Z,11.73
2022-10-07T18:49:34.018Z,7.17
2022-10-07T18:52:07.376Z,7.80
2022-10-07T18:54:35.915Z,8.67
2022-10-07T18:57:04.364Z,11.63
2022-10-07T18:59:32.582Z,8.77
2022-10-07T19:02:00.885Z,8.73
2022-10-07T19:04:30.908Z,10.60
2022-10-07T19:06:59.124Z,9.40
2022-10-07T19:09:30.043Z,10.90
2022-10-07T19:12:00.906Z,8.27
2022-10-07T19:14:31.096Z,11.33
2022-10-07T19:16:59.295Z,8.87
2022-10-07T19:19:27.408Z,8.47
2022-10-07T19:21:57.005Z,8.57
2022-10-07T19:24:45.475Z,11.73
2022-10-07T19:27:14.935Z,7.57
2022-10-07T19:29:43.152Z,8.10
2022-10-07T19:32:11.377Z,10.07
2022-10-07T19:34:39.600Z,9.43
2022-10-07T19:37:08.054Z,10.97
2022-10-07T19:39:36.867Z,11.57
2022-10-07T19:42:05.456Z,9.57
2022-10-07T19:44:35.087Z,7.87
2022-10-07T19:47:04.051Z,9.87
2022-10-07T19:49:33.337Z,10.83
2022-10-07T19:52:01.675Z,8.87
2022-10-07T19:54:35.665Z,8.40
2022-10-07T19:57:04.128Z,7.17
2022-10-07T19:59:32.240Z,8.60
2022-10-07T20:02:01.827Z,9.23
2022-10-07T20:04:30.943Z,7.13
2022-10-07T20:06:59.191Z,8.60
2022-10-07T20:09:27.329Z,12.03
2022-10-07T20:11:55.903Z,10.80
2022-10-07T20:14:24.010Z,10.97
2022-10-07T20:16:52.157Z,7.27
2022-10-07T20:19:21.744Z,8.27
2022-10-07T20:21:50.913Z,8.70
2022-10-07T20:24:18.993Z,7.63
2022-10-07T20:26:47.118Z,7.57
2022-10-07T20:29:16.597Z,9.00
2022-10-07T20:31:46.211Z,9.83
2022-10-07T20:34:20.029Z,9.73
2022-10-07T20:36:50.520Z,10.47
2022-10-07T20:39:38.402Z,8.13
2022-10-07T20:42:25.609Z,10.40
2022-10-07T20:44:54.224Z,12.67
2022-10-07T20:47:23.821Z,11.20
2022-10-07T20:49:51.958Z,8.63
2022-10-07T20:52:24.383Z,10.23
2022-10-07T20:54:54.187Z,9.37
2022-10-07T20:57:25.153Z,9.03
2022-10-07T20:59:53.463Z,8.60
2022-10-07T21:02:24.340Z,11.00
2022-10-07T21:04:53.241Z,8.67
2022-10-07T21:07:22.741Z,7.33
2022-10-07T21:09:51.792Z,11.30
2022-10-07T21:12:20.101Z,7.77
2022-10-07T21:14:48.612Z,9.17
2022-10-07T21:17:17.584Z,9.97
2022-10-07T21:19:45.733Z,10.17
2022-10-07T21:22:13.897Z,10.23
2022-10-07T21:24:43.327Z,9.73
2022-10-07T21:27:11.594Z,9.80
2022-10-07T21:29:41.252Z,9.70
2022-10-07T21:32:10.708Z,7.27
2022-10-07T21:34:39.475Z,8.77
2022-10-07T21:37:07.895Z,11.30
2022-10-07T21:39:36.081Z,8.53
2022-10-07T21:42:05.818Z,10.60
2022-10-07T21:44:34.781Z,9.07
2022-10-07T21:47:04.824Z,11.53
2022-10-07T21:49:32.971Z,6.40
2022-10-07T21:52:01.033Z,9.07
2022-10-07T21:54:30.274Z,6.70
2022-10-07T21:56:58.412Z,10.93
2022-10-07T21:59:28.070Z,8.07
2022-10-07T22:01:56.260Z,7.93
2022-10-07T22:04:24.887Z,9.43
2022-10-07T22:07:10.947Z,13.20
2022-10-07T22:09:39.037Z,10.90
2022-10-07T22:12:07.944Z,8.93
2022-10-07T22:14:38.352Z,10.97
2022-10-07T22:17:06.532Z,11.17
2022-10-07T22:19:34.776Z,12.67
2022-10-07T22:22:02.920Z,10.13
2022-10-07T22:24:31.097Z,10.60
2022-10-07T22:27:00.170Z,9.00
2022-10-07T22:29:29.684Z,11.83
2022-10-07T22:31:59.188Z,8.80
2022-10-07T22:34:44.974Z,9.43
2022-10-07T22:37:13.696Z,9.10
2022-10-07T22:39:42.166Z,7.67
2022-10-07T22:42:10.440Z,8.30
2022-10-07T22:44:39.381Z,8.57
2022-10-07T22:47:09.094Z,9.63
2022-10-07T22:49:37.164Z,10.80
2022-10-07T22:52:05.289Z,7.77
2022-10-07T22:54:33.484Z,9.77
2022-10-07T22:57:01.649Z,12.20
2022-10-07T22:59:29.810Z,10.93
2022-10-07T23:01:57.984Z,8.77
2022-10-07T23:04:27.470Z,8.60
2022-10-07T23:06:55.589Z,9.80
2022-10-07T23:09:23.753Z,8.43
2022-10-07T23:11:51.896Z,10.83
2022-10-07T23:14:20.074Z,8.67
2022-10-07T23:16:48.259Z,7.10
2022-10-07T23:19:16.355Z,11.13
2022-10-07T23:21:46.129Z,7.87
2022-10-07T23:24:14.414Z,9.37
2022-10-07T23:26:46.054Z,8.17
2022-10-07T23:29:14.798Z,8.93
2022-10-07T23:31:44.771Z,8.43
2022-10-07T23:34:13.842Z,10.00
2022-10-07T23:36:41.980Z,11.53
2022-10-07T23:39:11.784Z,9.20
2022-10-07T23:41:40.760Z,8.00
2022-10-07T23:44:08.912Z,9.83
2022-10-07T23:46:37.067Z,14.90
2022-10-07T23:49:05.948Z,7.57
2022-10-07T23:51:34.903Z,7.90
2022-10-07T23:54:05.057Z,11.07
2022-10-07T23:56:34.819Z,10.13
2022-10-07T23:59:03.885Z,7.83
